sensor_id;sensor_type;location;lat;lon;timestamp;P1;durP1;ratioP1;P2;durP2;ratioP2
24277;SDS011;12394;42.692;23.314;2023-06-14T00:01:32;8.20;;;7.30;;
24277;SDS011;12394;42.692;23.314;2023-06-14T00:03:59;9.67;;;6.80;;
24277;SDS011;12394;42.692;23.314;2023-06-14T00:06:26;12.03;;;7.40;;
24277;SDS011;12394;42.692;23.314;2023-06-14T00:08:53;8.00;;;7.20;;
24277;SDS011;12394;42.692;23.314;2023-06-14T00:11:19;9.67;;;7.17;;
24277;SDS011;12394;42.692;23.314;2023-06-14T00:13:45;9.67;;;6.80;;
24277;SDS011;12394;42.692;23.314;2023-06-14T00:16:11;9.67;;;7.00;;
24277;SDS011;12394;42.692;23.314;2023-06-14T00:18:37;11.97;;;6.73;;
24277;SDS011;12394;42.692;23.314;2023-06-14T00:21:03;8.83;;;6.40;;
24277;SDS011;12394;42.692;23.314;2023-06-14T00:23:29;7.80;;;6.50;;
24277;SDS011;12394;42.692;23.314;2023-06-14T00:25:55;8.67;;;7.33;;
24277;SDS011;12394;42.692;23.314;2023-06-14T00:28:21;8.93;;;6.87;;
24277;SDS011;12394;42.692;23.314;2023-06-14T00:30:46;10.53;;;7.00;;
24277;SDS011;12394;42.692;23.314;2023-06-14T00:33:12;8.90;;;7.27;;
24277;SDS011;12394;42.692;23.314;2023-06-14T00:35:38;7.10;;;6.40;;
24277;SDS011;12394;42.692;23.314;2023-06-14T00:38:04;9.67;;;6.30;;
24277;SDS011;12394;42.692;23.314;2023-06-14T00:40:29;11.37;;;6.93;;
24277;SDS011;12394;42.692;23.314;2023-06-14T00:42:55;9.43;;;7.07;;
24277;SDS011;12394;42.692;23.314;2023-06-14T00:45:20;6.83;;;6.03;;
24277;SDS011;12394;42.692;23.314;2023-06-14T00:47:45;7.87;;;6.60;;
24277;SDS011;12394;42.692;23.314;2023-06-14T00:50:11;8.17;;;6.70;;
24277;SDS011;12394;42.692;23.314;2023-06-14T00:52:38;7.00;;;6.40;;
24277;SDS011;12394;42.692;23.314;2023-06-14T00:55:05;7.50;;;6.40;;
24277;SDS011;12394;42.692;23.314;2023-06-14T00:57:31;10.57;;;6.13;;
24277;SDS011;12394;42.692;23.314;2023-06-14T00:59:57;8.77;;;6.50;;
24277;SDS011;12394;42.692;23.314;2023-06-14T01:02:23;7.63;;;6.93;;
24277;SDS011;12394;42.692;23.314;2023-06-14T01:04:49;8.37;;;6.30;;
24277;SDS011;12394;42.692;23.314;2023-06-14T01:07:29;8.27;;;5.40;;
24277;SDS011;12394;42.692;23.314;2023-06-14T01:15:48;8.53;;;6.17;;
24277;SDS011;12394;42.692;23.314;2023-06-14T01:18:16;7.90;;;5.93;;
24277;SDS011;12394;42.692;23.314;2023-06-14T01:20:43;12.80;;;6.20;;
24277;SDS011;12394;42.692;23.314;2023-06-14T01:23:17;7.53;;;6.20;;
24277;SDS011;12394;42.692;23.314;2023-06-14T01:25:45;10.23;;;6.43;;
24277;SDS011;12394;42.692;23.314;2023-06-14T01:28:12;11.13;;;6.60;;
24277;SDS011;12394;42.692;23.314;2023-06-14T01:30:42;14.20;;;6.97;;
24277;SDS011;12394;42.692;23.314;2023-06-14T01:33:13;10.83;;;6.30;;
24277;SDS011;12394;42.692;23.314;2023-06-14T01:35:58;8.03;;;7.00;;
24277;SDS011;12394;42.692;23.314;2023-06-14T01:38:25;14.67;;;7.93;;
24277;SDS011;12394;42.692;23.314;2023-06-14T01:40:53;8.67;;;7.17;;
24277;SDS011;12394;42.692;23.314;2023-06-14T01:43:20;13.67;;;6.13;;
24277;SDS011;12394;42.692;23.314;2023-06-14T01:45:47;12.00;;;7.47;;
24277;SDS011;12394;42.692;23.314;2023-06-14T01:48:14;8.70;;;6.53;;
24277;SDS011;12394;42.692;23.314;2023-06-14T01:50:40;11.60;;;6.73;;
24277;SDS011;12394;42.692;23.314;2023-06-14T01:53:09;9.13;;;7.07;;
24277;SDS011;12394;42.692;23.314;2023-06-14T01:55:35;9.17;;;6.53;;
24277;SDS011;12394;42.692;23.314;2023-06-14T01:58:05;8.77;;;7.30;;
24277;SDS011;12394;42.692;23.314;2023-06-14T02:00:30;9.17;;;6.90;;
24277;SDS011;12394;42.692;23.314;2023-06-14T02:02:56;12.80;;;7.00;;
24277;SDS011;12394;42.692;23.314;2023-06-14T02:05:22;22.87;;;7.73;;
24277;SDS011;12394;42.692;23.314;2023-06-14T02:07:49;13.40;;;8.03;;
24277;SDS011;12394;42.692;23.314;2023-06-14T02:10:15;13.13;;;7.60;;
24277;SDS011;12394;42.692;23.314;2023-06-14T02:12:42;11.70;;;6.93;;
24277;SDS011;12394;42.692;23.314;2023-06-14T02:15:08;8.93;;;7.53;;
24277;SDS011;12394;42.692;23.314;2023-06-14T02:17:35;9.43;;;7.23;;
24277;SDS011;12394;42.692;23.314;2023-06-14T02:20:00;8.03;;;7.23;;
24277;SDS011;12394;42.692;23.314;2023-06-14T02:22:26;8.30;;;6.90;;
24277;SDS011;12394;42.692;23.314;2023-06-14T02:24:51;8.20;;;7.40;;
24277;SDS011;12394;42.692;23.314;2023-06-14T02:27:16;9.73;;;7.97;;
24277;SDS011;12394;42.692;23.314;2023-06-14T02:29:42;10.67;;;7.10;;
24277;SDS011;12394;42.692;23.314;2023-06-14T02:32:08;7.43;;;6.70;;
24277;SDS011;12394;42.692;23.314;2023-06-14T02:34:34;13.63;;;7.20;;
24277;SDS011;12394;42.692;23.314;2023-06-14T02:37:00;9.57;;;7.53;;
24277;SDS011;12394;42.692;23.314;2023-06-14T02:39:27;10.00;;;7.23;;
24277;SDS011;12394;42.692;23.314;2023-06-14T02:41:53;8.93;;;7.13;;
24277;SDS011;12394;42.692;23.314;2023-06-14T02:44:18;10.63;;;7.03;;
24277;SDS011;12394;42.692;23.314;2023-06-14T02:46:44;8.37;;;7.20;;
24277;SDS011;12394;42.692;23.314;2023-06-14T02:49:10;8.60;;;6.93;;
24277;SDS011;12394;42.692;23.314;2023-06-14T02:51:36;8.97;;;7.37;;
24277;SDS011;12394;42.692;23.314;2023-06-14T02:54:02;11.00;;;7.83;;
24277;SDS011;12394;42.692;23.314;2023-06-14T02:56:28;13.13;;;7.83;;
24277;SDS011;12394;42.692;23.314;2023-06-14T02:58:54;13.13;;;8.57;;
24277;SDS011;12394;42.692;23.314;2023-06-14T03:01:20;14.27;;;7.50;;
24277;SDS011;12394;42.692;23.314;2023-06-14T03:03:46;16.60;;;9.20;;
24277;SDS011;12394;42.692;23.314;2023-06-14T03:06:12;8.30;;;7.40;;
24277;SDS011;12394;42.692;23.314;2023-06-14T03:08:39;10.40;;;7.57;;
24277;SDS011;12394;42.692;23.314;2023-06-14T03:11:05;13.57;;;8.10;;
24277;SDS011;12394;42.692;23.314;2023-06-14T03:13:30;14.00;;;7.90;;
24277;SDS011;12394;42.692;23.314;2023-06-14T03:15:59;27.87;;;9.87;;
24277;SDS011;12394;42.692;23.314;2023-06-14T03:18:27;12.47;;;8.07;;
24277;SDS011;12394;42.692;23.314;2023-06-14T03:20:54;11.13;;;8.93;;
24277;SDS011;12394;42.692;23.314;2023-06-14T03:23:22;9.00;;;7.90;;
24277;SDS011;12394;42.692;23.314;2023-06-14T03:25:48;18.93;;;9.23;;
24277;SDS011;12394;42.692;23.314;2023-06-14T03:28:13;14.13;;;7.87;;
24277;SDS011;12394;42.692;23.314;2023-06-14T03:30:39;9.67;;;7.93;;
24277;SDS011;12394;42.692;23.314;2023-06-14T03:33:04;9.97;;;8.23;;
24277;SDS011;12394;42.692;23.314;2023-06-14T03:35:30;10.33;;;7.73;;
24277;SDS011;12394;42.692;23.314;2023-06-14T03:37:55;27.33;;;8.87;;
24277;SDS011;12394;42.692;23.314;2023-06-14T03:40:21;12.00;;;7.90;;
24277;SDS011;12394;42.692;23.314;2023-06-14T03:42:47;15.13;;;8.33;;
24277;SDS011;12394;42.692;23.314;2023-06-14T03:45:12;10.03;;;8.40;;
24277;SDS011;12394;42.692;23.314;2023-06-14T03:47:38;10.83;;;7.67;;
24277;SDS011;12394;42.692;23.314;2023-06-14T03:50:03;11.27;;;8.10;;
24277;SDS011;12394;42.692;23.314;2023-06-14T03:52:29;13.00;;;7.53;;
24277;SDS011;12394;42.692;23.314;2023-06-14T03:54:56;8.60;;;7.63;;
24277;SDS011;12394;42.692;23.314;2023-06-14T03:57:22;13.17;;;9.03;;
24277;SDS011;12394;42.692;23.314;2023-06-14T03:59:48;15.57;;;8.23;;
24277;SDS011;12394;42.692;23.314;2023-06-14T04:02:14;10.37;;;7.87;;
24277;SDS011;12394;42.692;23.314;2023-06-14T04:04:43;16.83;;;8.53;;
24277;SDS011;12394;42.692;23.314;2023-06-14T04:07:13;11.70;;;7.80;;
24277;SDS011;12394;42.692;23.314;2023-06-14T04:09:39;10.03;;;7.77;;
24277;SDS011;12394;42.692;23.314;2023-06-14T04:12:06;11.17;;;8.23;;
24277;SDS011;12394;42.692;23.314;2023-06-14T04:14:33;9.20;;;7.43;;
24277;SDS011;12394;42.692;23.314;2023-06-14T04:16:59;10.17;;;7.53;;
24277;SDS011;12394;42.692;23.314;2023-06-14T04:19:25;9.13;;;8.20;;
24277;SDS011;12394;42.692;23.314;2023-06-14T04:21:50;10.93;;;8.30;;
24277;SDS011;12394;42.692;23.314;2023-06-14T04:24:16;11.97;;;8.00;;
24277;SDS011;12394;42.692;23.314;2023-06-14T04:26:44;20.20;;;8.63;;
24277;SDS011;12394;42.692;23.314;2023-06-14T04:29:12;14.37;;;8.57;;
24277;SDS011;12394;42.692;23.314;2023-06-14T04:31:45;13.13;;;8.97;;
24277;SDS011;12394;42.692;23.314;2023-06-14T04:34:11;12.00;;;8.30;;
24277;SDS011;12394;42.692;23.314;2023-06-14T04:36:41;16.37;;;8.60;;
24277;SDS011;12394;42.692;23.314;2023-06-14T04:39:14;10.47;;;8.53;;
24277;SDS011;12394;42.692;23.314;2023-06-14T04:41:46;10.63;;;9.10;;
24277;SDS011;12394;42.692;23.314;2023-06-14T04:44:12;18.03;;;10.37;;
24277;SDS011;12394;42.692;23.314;2023-06-14T04:46:38;18.97;;;10.50;;
24277;SDS011;12394;42.692;23.314;2023-06-14T04:49:13;11.30;;;8.93;;
24277;SDS011;12394;42.692;23.314;2023-06-14T04:51:43;13.33;;;9.43;;
24277;SDS011;12394;42.692;23.314;2023-06-14T04:54:10;13.13;;;9.97;;
24277;SDS011;12394;42.692;23.314;2023-06-14T04:56:40;13.67;;;9.83;;
24277;SDS011;12394;42.692;23.314;2023-06-14T04:59:07;23.00;;;10.23;;
24277;SDS011;12394;42.692;23.314;2023-06-14T05:01:34;22.73;;;10.70;;
24277;SDS011;12394;42.692;23.314;2023-06-14T05:03:59;10.17;;;9.13;;
24277;SDS011;12394;42.692;23.314;2023-06-14T05:06:25;10.63;;;9.47;;
24277;SDS011;12394;42.692;23.314;2023-06-14T05:08:52;11.17;;;9.23;;
24277;SDS011;12394;42.692;23.314;2023-06-14T05:11:18;15.23;;;10.13;;
24277;SDS011;12394;42.692;23.314;2023-06-14T05:13:43;13.37;;;9.60;;
24277;SDS011;12394;42.692;23.314;2023-06-14T05:16:10;10.23;;;9.23;;
24277;SDS011;12394;42.692;23.314;2023-06-14T05:18:40;24.70;;;11.07;;
24277;SDS011;12394;42.692;23.314;2023-06-14T05:21:06;18.97;;;12.37;;
24277;SDS011;12394;42.692;23.314;2023-06-14T05:23:31;16.07;;;12.83;;
24277;SDS011;12394;42.692;23.314;2023-06-14T05:28:41;21.53;;;10.80;;
24277;SDS011;12394;42.692;23.314;2023-06-14T05:31:06;16.80;;;12.10;;
24277;SDS011;12394;42.692;23.314;2023-06-14T05:33:32;14.87;;;10.63;;
24277;SDS011;12394;42.692;23.314;2023-06-14T05:35:57;14.13;;;10.33;;
24277;SDS011;12394;42.692;23.314;2023-06-14T05:38:23;13.83;;;12.33;;
24277;SDS011;12394;42.692;23.314;2023-06-14T05:40:48;24.00;;;15.40;;
24277;SDS011;12394;42.692;23.314;2023-06-14T05:43:13;15.60;;;10.27;;
24277;SDS011;12394;42.692;23.314;2023-06-14T05:45:39;24.97;;;16.43;;
24277;SDS011;12394;42.692;23.314;2023-06-14T05:48:05;21.13;;;14.23;;
24277;SDS011;12394;42.692;23.314;2023-06-14T05:50:30;23.83;;;15.63;;
24277;SDS011;12394;42.692;23.314;2023-06-14T05:52:56;21.23;;;11.93;;
24277;SDS011;12394;42.692;23.314;2023-06-14T05:55:21;14.40;;;9.93;;
24277;SDS011;12394;42.692;23.314;2023-06-14T05:57:47;22.70;;;11.60;;
24277;SDS011;12394;42.692;23.314;2023-06-14T06:00:13;27.87;;;15.37;;
24277;SDS011;12394;42.692;23.314;2023-06-14T06:02:42;20.20;;;15.00;;
24277;SDS011;12394;42.692;23.314;2023-06-14T06:05:09;22.50;;;17.07;;
24277;SDS011;12394;42.692;23.314;2023-06-14T06:07:35;18.40;;;14.40;;
24277;SDS011;12394;42.692;23.314;2023-06-14T06:10:02;37.20;;;17.93;;
24277;SDS011;12394;42.692;23.314;2023-06-14T06:12:27;32.90;;;15.33;;
24277;SDS011;12394;42.692;23.314;2023-06-14T06:14:53;47.73;;;36.73;;
24277;SDS011;12394;42.692;23.314;2023-06-14T06:17:18;73.90;;;46.47;;
24277;SDS011;12394;42.692;23.314;2023-06-14T06:19:44;24.90;;;15.33;;
24277;SDS011;12394;42.692;23.314;2023-06-14T06:22:09;24.97;;;15.17;;
24277;SDS011;12394;42.692;23.314;2023-06-14T06:24:35;24.50;;;16.67;;
24277;SDS011;12394;42.692;23.314;2023-06-14T06:27:00;21.37;;;14.57;;
24277;SDS011;12394;42.692;23.314;2023-06-14T06:29:27;32.90;;;18.10;;
24277;SDS011;12394;42.692;23.314;2023-06-14T06:31:52;20.43;;;15.73;;
24277;SDS011;12394;42.692;23.314;2023-06-14T06:34:18;15.63;;;13.37;;
24277;SDS011;12394;42.692;23.314;2023-06-14T06:36:43;16.33;;;12.90;;
24277;SDS011;12394;42.692;23.314;2023-06-14T06:39:09;20.33;;;16.10;;
24277;SDS011;12394;42.692;23.314;2023-06-14T06:41:37;22.13;;;12.43;;
24277;SDS011;12394;42.692;23.314;2023-06-14T06:44:04;19.27;;;15.27;;
24277;SDS011;12394;42.692;23.314;2023-06-14T06:46:31;19.40;;;14.50;;
24277;SDS011;12394;42.692;23.314;2023-06-14T06:48:57;21.93;;;14.70;;
24277;SDS011;12394;42.692;23.314;2023-06-14T06:51:24;34.53;;;19.83;;
24277;SDS011;12394;42.692;23.314;2023-06-14T06:53:53;24.10;;;16.07;;
24277;SDS011;12394;42.692;23.314;2023-06-14T06:56:19;22.77;;;14.27;;
24277;SDS011;12394;42.692;23.314;2023-06-14T06:58:44;17.97;;;12.97;;
24277;SDS011;12394;42.692;23.314;2023-06-14T07:01:10;19.77;;;14.73;;
24277;SDS011;12394;42.692;23.314;2023-06-14T07:03:38;19.13;;;15.50;;
24277;SDS011;12394;42.692;23.314;2023-06-14T07:06:09;19.43;;;14.23;;
24277;SDS011;12394;42.692;23.314;2023-06-14T07:08:36;19.83;;;14.40;;
24277;SDS011;12394;42.692;23.314;2023-06-14T07:11:03;21.67;;;16.47;;
24277;SDS011;12394;42.692;23.314;2023-06-14T07:13:29;26.43;;;18.10;;
24277;SDS011;12394;42.692;23.314;2023-06-14T07:15:57;23.63;;;16.97;;
24277;SDS011;12394;42.692;23.314;2023-06-14T07:18:26;24.83;;;16.77;;
24277;SDS011;12394;42.692;23.314;2023-06-14T07:20:53;19.27;;;17.13;;
24277;SDS011;12394;42.692;23.314;2023-06-14T07:23:25;21.23;;;14.73;;
24277;SDS011;12394;42.692;23.314;2023-06-14T07:25:53;21.63;;;15.23;;
24277;SDS011;12394;42.692;23.314;2023-06-14T07:28:19;18.23;;;12.80;;
24277;SDS011;12394;42.692;23.314;2023-06-14T07:30:46;17.67;;;14.00;;
24277;SDS011;12394;42.692;23.314;2023-06-14T07:33:17;19.93;;;13.03;;
24277;SDS011;12394;42.692;23.314;2023-06-14T07:35:44;21.87;;;13.83;;
24277;SDS011;12394;42.692;23.314;2023-06-14T07:38:11;17.20;;;13.23;;
24277;SDS011;12394;42.692;23.314;2023-06-14T07:40:41;19.57;;;15.23;;
24277;SDS011;12394;42.692;23.314;2023-06-14T07:43:08;16.80;;;13.30;;
24277;SDS011;12394;42.692;23.314;2023-06-14T07:45:35;21.10;;;14.17;;
24277;SDS011;12394;42.692;23.314;2023-06-14T07:48:05;16.30;;;14.07;;
24277;SDS011;12394;42.692;23.314;2023-06-14T07:50:33;14.70;;;13.20;;
24277;SDS011;12394;42.692;23.314;2023-06-14T07:53:03;17.07;;;13.50;;
24277;SDS011;12394;42.692;23.314;2023-06-14T07:55:31;24.33;;;15.37;;
24277;SDS011;12394;42.692;23.314;2023-06-14T07:57:58;20.00;;;15.03;;
24277;SDS011;12394;42.692;23.314;2023-06-14T08:00:24;19.67;;;14.93;;
24277;SDS011;12394;42.692;23.314;2023-06-14T08:02:49;23.43;;;14.27;;
24277;SDS011;12394;42.692;23.314;2023-06-14T08:05:17;21.40;;;14.27;;
24277;SDS011;12394;42.692;23.314;2023-06-14T08:07:42;21.10;;;14.70;;
24277;SDS011;12394;42.692;23.314;2023-06-14T08:10:08;19.63;;;13.00;;
24277;SDS011;12394;42.692;23.314;2023-06-14T08:12:33;22.03;;;13.83;;
24277;SDS011;12394;42.692;23.314;2023-06-14T08:14:59;17.60;;;13.90;;
24277;SDS011;12394;42.692;23.314;2023-06-14T08:17:25;18.77;;;14.00;;
24277;SDS011;12394;42.692;23.314;2023-06-14T08:19:51;17.07;;;12.87;;
24277;SDS011;12394;42.692;23.314;2023-06-14T08:22:17;21.17;;;12.77;;
24277;SDS011;12394;42.692;23.314;2023-06-14T08:24:43;21.93;;;14.67;;
24277;SDS011;12394;42.692;23.314;2023-06-14T08:27:09;21.03;;;13.63;;
24277;SDS011;12394;42.692;23.314;2023-06-14T08:29:35;13.57;;;12.13;;
24277;SDS011;12394;42.692;23.314;2023-06-14T08:32:00;18.57;;;13.33;;
24277;SDS011;12394;42.692;23.314;2023-06-14T08:34:26;16.83;;;13.47;;
24277;SDS011;12394;42.692;23.314;2023-06-14T08:36:52;13.80;;;12.23;;
24277;SDS011;12394;42.692;23.314;2023-06-14T08:39:18;23.00;;;14.90;;
24277;SDS011;12394;42.692;23.314;2023-06-14T08:41:46;16.17;;;12.60;;
24277;SDS011;12394;42.692;23.314;2023-06-14T08:44:18;14.83;;;11.17;;
24277;SDS011;12394;42.692;23.314;2023-06-14T08:46:44;13.23;;;11.03;;
24277;SDS011;12394;42.692;23.314;2023-06-14T08:49:12;22.57;;;13.40;;
24277;SDS011;12394;42.692;23.314;2023-06-14T08:51:40;13.07;;;11.37;;
24277;SDS011;12394;42.692;23.314;2023-06-14T08:54:08;14.03;;;11.90;;
24277;SDS011;12394;42.692;23.314;2023-06-14T08:56:37;12.73;;;11.53;;
24277;SDS011;12394;42.692;23.314;2023-06-14T08:59:03;17.53;;;13.33;;
24277;SDS011;12394;42.692;23.314;2023-06-14T09:01:34;21.73;;;11.20;;
24277;SDS011;12394;42.692;23.314;2023-06-14T09:04:03;13.00;;;11.40;;
24277;SDS011;12394;42.692;23.314;2023-06-14T09:06:31;11.20;;;9.93;;
24277;SDS011;12394;42.692;23.314;2023-06-14T09:08:56;25.40;;;12.47;;
24277;SDS011;12394;42.692;23.314;2023-06-14T09:11:22;12.47;;;11.17;;
24277;SDS011;12394;42.692;23.314;2023-06-14T09:13:48;16.17;;;10.77;;
24277;SDS011;12394;42.692;23.314;2023-06-14T09:16:15;15.07;;;12.00;;
24277;SDS011;12394;42.692;23.314;2023-06-14T09:18:43;13.03;;;11.20;;
24277;SDS011;12394;42.692;23.314;2023-06-14T09:21:10;21.13;;;12.93;;
24277;SDS011;12394;42.692;23.314;2023-06-14T09:23:37;14.17;;;11.27;;
24277;SDS011;12394;42.692;23.314;2023-06-14T09:26:12;13.30;;;11.90;;
24277;SDS011;12394;42.692;23.314;2023-06-14T09:28:42;14.97;;;12.37;;
24277;SDS011;12394;42.692;23.314;2023-06-14T09:31:11;15.57;;;13.27;;
24277;SDS011;12394;42.692;23.314;2023-06-14T09:33:38;19.13;;;15.03;;
24277;SDS011;12394;42.692;23.314;2023-06-14T09:36:04;14.47;;;12.07;;
24277;SDS011;12394;42.692;23.314;2023-06-14T09:38:34;13.97;;;12.20;;
24277;SDS011;12394;42.692;23.314;2023-06-14T09:41:01;18.33;;;12.27;;
24277;SDS011;12394;42.692;23.314;2023-06-14T09:43:30;13.60;;;11.87;;
24277;SDS011;12394;42.692;23.314;2023-06-14T09:45:58;13.77;;;11.23;;
24277;SDS011;12394;42.692;23.314;2023-06-14T09:48:25;12.23;;;10.43;;
24277;SDS011;12394;42.692;23.314;2023-06-14T09:50:51;13.90;;;12.10;;
24277;SDS011;12394;42.692;23.314;2023-06-14T09:53:19;12.90;;;10.97;;
24277;SDS011;12394;42.692;23.314;2023-06-14T09:55:47;13.00;;;11.70;;
24277;SDS011;12394;42.692;23.314;2023-06-14T09:58:14;14.50;;;10.63;;
24277;SDS011;12394;42.692;23.314;2023-06-14T10:00:41;10.90;;;9.63;;
24277;SDS011;12394;42.692;23.314;2023-06-14T10:03:13;11.90;;;10.70;;
24277;SDS011;12394;42.692;23.314;2023-06-14T10:05:47;25.17;;;14.53;;
24277;SDS011;12394;42.692;23.314;2023-06-14T10:08:18;15.40;;;13.23;;
24277;SDS011;12394;42.692;23.314;2023-06-14T10:10:50;14.30;;;10.87;;
24277;SDS011;12394;42.692;23.314;2023-06-14T10:13:16;12.37;;;11.17;;
24277;SDS011;12394;42.692;23.314;2023-06-14T10:15:48;12.93;;;11.10;;
24277;SDS011;12394;42.692;23.314;2023-06-14T10:18:59;15.20;;;13.60;;
24277;SDS011;12394;42.692;23.314;2023-06-14T10:21:32;12.17;;;10.97;;
24277;SDS011;12394;42.692;23.314;2023-06-14T10:24:00;13.60;;;11.73;;
24277;SDS011;12394;42.692;23.314;2023-06-14T10:26:28;13.07;;;11.77;;
24277;SDS011;12394;42.692;23.314;2023-06-14T10:28:57;12.20;;;11.00;;
24277;SDS011;12394;42.692;23.314;2023-06-14T10:31:40;13.77;;;12.37;;
24277;SDS011;12394;42.692;23.314;2023-06-14T10:34:07;14.53;;;11.40;;
24277;SDS011;12394;42.692;23.314;2023-06-14T10:36:33;22.80;;;13.73;;
24277;SDS011;12394;42.692;23.314;2023-06-14T10:41:37;20.90;;;14.13;;
24277;SDS011;12394;42.692;23.314;2023-06-14T10:46:38;13.77;;;12.37;;
24277;SDS011;12394;42.692;23.314;2023-06-14T10:49:06;15.13;;;13.50;;
24277;SDS011;12394;42.692;23.314;2023-06-14T10:51:38;13.10;;;11.80;;
24277;SDS011;12394;42.692;23.314;2023-06-14T10:54:16;17.57;;;13.50;;
24277;SDS011;12394;42.692;23.314;2023-06-14T10:56:46;15.37;;;12.40;;
24277;SDS011;12394;42.692;23.314;2023-06-14T10:59:33;12.60;;;9.77;;
24277;SDS011;12394;42.692;23.314;2023-06-14T11:02:02;18.10;;;12.00;;
24277;SDS011;12394;42.692;23.314;2023-06-14T11:04:48;12.33;;;11.03;;
24277;SDS011;12394;42.692;23.314;2023-06-14T11:12:58;17.83;;;11.37;;
24277;SDS011;12394;42.692;23.314;2023-06-14T11:15:28;15.87;;;11.40;;
24277;SDS011;12394;42.692;23.314;2023-06-14T11:18:01;16.50;;;11.97;;
24277;SDS011;12394;42.692;23.314;2023-06-14T11:20:29;16.37;;;11.47;;
24277;SDS011;12394;42.692;23.314;2023-06-14T11:22:56;14.60;;;10.20;;
24277;SDS011;12394;42.692;23.314;2023-06-14T11:25:21;11.70;;;10.50;;
24277;SDS011;12394;42.692;23.314;2023-06-14T11:27:48;11.30;;;9.70;;
24277;SDS011;12394;42.692;23.314;2023-06-14T11:30:14;14.90;;;11.70;;
24277;SDS011;12394;42.692;23.314;2023-06-14T11:32:40;18.67;;;11.73;;
24277;SDS011;12394;42.692;23.314;2023-06-14T11:35:06;9.83;;;8.87;;
24277;SDS011;12394;42.692;23.314;2023-06-14T11:37:32;9.97;;;8.97;;
24277;SDS011;12394;42.692;23.314;2023-06-14T11:40:06;10.23;;;9.23;;
24277;SDS011;12394;42.692;23.314;2023-06-14T11:42:33;11.37;;;9.17;;
24277;SDS011;12394;42.692;23.314;2023-06-14T11:44:59;13.60;;;11.10;;
24277;SDS011;12394;42.692;23.314;2023-06-14T11:47:35;10.87;;;8.87;;
24277;SDS011;12394;42.692;23.314;2023-06-14T11:50:02;10.67;;;9.17;;
24277;SDS011;12394;42.692;23.314;2023-06-14T11:52:30;10.50;;;9.23;;
24277;SDS011;12394;42.692;23.314;2023-06-14T11:55:01;10.37;;;9.37;;
24277;SDS011;12394;42.692;23.314;2023-06-14T11:57:30;10.00;;;8.93;;
24277;SDS011;12394;42.692;23.314;2023-06-14T11:59:58;13.30;;;9.93;;
24277;SDS011;12394;42.692;23.314;2023-06-14T12:02:24;12.80;;;10.07;;
24277;SDS011;12394;42.692;23.314;2023-06-14T12:04:50;9.50;;;8.50;;
24277;SDS011;12394;42.692;23.314;2023-06-14T12:07:16;10.07;;;9.07;;
24277;SDS011;12394;42.692;23.314;2023-06-14T12:12:26;11.57;;;8.37;;
24277;SDS011;12394;42.692;23.314;2023-06-14T12:14:52;10.23;;;9.10;;
24277;SDS011;12394;42.692;23.314;2023-06-14T12:17:18;11.33;;;8.33;;
24277;SDS011;12394;42.692;23.314;2023-06-14T12:19:45;10.93;;;8.80;;
24277;SDS011;12394;42.692;23.314;2023-06-14T12:22:11;11.33;;;8.73;;
24277;SDS011;12394;42.692;23.314;2023-06-14T12:24:42;12.60;;;9.03;;
24277;SDS011;12394;42.692;23.314;2023-06-14T12:27:08;8.77;;;7.87;;
24277;SDS011;12394;42.692;23.314;2023-06-14T12:29:41;12.23;;;10.40;;
24277;SDS011;12394;42.692;23.314;2023-06-14T12:32:09;10.80;;;8.23;;
24277;SDS011;12394;42.692;23.314;2023-06-14T12:34:35;9.27;;;8.37;;
24277;SDS011;12394;42.692;23.314;2023-06-14T12:37:00;9.87;;;7.97;;
24277;SDS011;12394;42.692;23.314;2023-06-14T12:39:28;9.60;;;8.57;;
24277;SDS011;12394;42.692;23.314;2023-06-14T12:41:55;9.30;;;8.37;;
24277;SDS011;12394;42.692;23.314;2023-06-14T12:44:20;9.47;;;7.50;;
24277;SDS011;12394;42.692;23.314;2023-06-14T12:46:45;9.53;;;7.53;;
24277;SDS011;12394;42.692;23.314;2023-06-14T12:49:12;7.47;;;6.77;;
24277;SDS011;12394;42.692;23.314;2023-06-14T12:51:38;9.80;;;6.90;;
24277;SDS011;12394;42.692;23.314;2023-06-14T12:54:04;8.27;;;7.27;;
24277;SDS011;12394;42.692;23.314;2023-06-14T12:56:29;9.10;;;8.17;;
24277;SDS011;12394;42.692;23.314;2023-06-14T12:58:55;8.27;;;7.47;;
24277;SDS011;12394;42.692;23.314;2023-06-14T13:01:20;9.53;;;6.90;;
24277;SDS011;12394;42.692;23.314;2023-06-14T13:03:46;7.67;;;6.97;;
24277;SDS011;12394;42.692;23.314;2023-06-14T13:06:12;11.37;;;7.73;;
24277;SDS011;12394;42.692;23.314;2023-06-14T13:08:38;8.43;;;6.80;;
24277;SDS011;12394;42.692;23.314;2023-06-14T13:11:05;7.67;;;6.93;;
24277;SDS011;12394;42.692;23.314;2023-06-14T13:13:33;9.17;;;7.43;;
24277;SDS011;12394;42.692;23.314;2023-06-14T13:15:58;8.00;;;7.10;;
24277;SDS011;12394;42.692;23.314;2023-06-14T13:18:24;6.67;;;6.07;;
24277;SDS011;12394;42.692;23.314;2023-06-14T13:20:50;10.97;;;7.40;;
24277;SDS011;12394;42.692;23.314;2023-06-14T13:23:15;8.67;;;7.23;;
24277;SDS011;12394;42.692;23.314;2023-06-14T13:25:41;10.40;;;7.63;;
24277;SDS011;12394;42.692;23.314;2023-06-14T13:28:07;8.50;;;7.63;;
24277;SDS011;12394;42.692;23.314;2023-06-14T13:30:32;8.03;;;6.77;;
24277;SDS011;12394;42.692;23.314;2023-06-14T13:32:59;7.60;;;6.80;;
24277;SDS011;12394;42.692;23.314;2023-06-14T13:35:25;10.77;;;6.63;;
24277;SDS011;12394;42.692;23.314;2023-06-14T13:37:50;9.70;;;7.17;;
24277;SDS011;12394;42.692;23.314;2023-06-14T13:40:16;14.07;;;7.90;;
24277;SDS011;12394;42.692;23.314;2023-06-14T13:42:42;8.47;;;7.13;;
24277;SDS011;12394;42.692;23.314;2023-06-14T13:45:08;8.97;;;7.10;;
24277;SDS011;12394;42.692;23.314;2023-06-14T13:47:36;8.03;;;7.07;;
24277;SDS011;12394;42.692;23.314;2023-06-14T13:50:02;12.47;;;8.80;;
24277;SDS011;12394;42.692;23.314;2023-06-14T13:52:28;14.00;;;9.50;;
24277;SDS011;12394;42.692;23.314;2023-06-14T13:54:53;10.23;;;8.60;;
24277;SDS011;12394;42.692;23.314;2023-06-14T13:57:19;10.10;;;7.73;;
24277;SDS011;12394;42.692;23.314;2023-06-14T13:59:44;11.07;;;9.00;;
24277;SDS011;12394;42.692;23.314;2023-06-14T14:02:10;14.13;;;10.03;;
24277;SDS011;12394;42.692;23.314;2023-06-14T14:04:37;9.67;;;8.67;;
24277;SDS011;12394;42.692;23.314;2023-06-14T14:07:03;10.67;;;9.00;;
24277;SDS011;12394;42.692;23.314;2023-06-14T14:09:30;13.17;;;9.50;;
24277;SDS011;12394;42.692;23.314;2023-06-14T14:11:56;10.53;;;9.43;;
24277;SDS011;12394;42.692;23.314;2023-06-14T14:14:22;11.40;;;10.20;;
24277;SDS011;12394;42.692;23.314;2023-06-14T14:16:48;10.20;;;8.87;;
24277;SDS011;12394;42.692;23.314;2023-06-14T14:19:16;11.13;;;8.67;;
24277;SDS011;12394;42.692;23.314;2023-06-14T14:21:43;9.17;;;8.27;;
24277;SDS011;12394;42.692;23.314;2023-06-14T14:24:09;9.00;;;7.53;;
24277;SDS011;12394;42.692;23.314;2023-06-14T14:26:34;7.60;;;6.83;;
24277;SDS011;12394;42.692;23.314;2023-06-14T14:29:00;9.57;;;8.50;;
24277;SDS011;12394;42.692;23.314;2023-06-14T14:31:27;8.70;;;7.80;;
24277;SDS011;12394;42.692;23.314;2023-06-14T14:33:53;10.80;;;7.60;;
24277;SDS011;12394;42.692;23.314;2023-06-14T14:36:18;7.83;;;7.03;;
24277;SDS011;12394;42.692;23.314;2023-06-14T14:38:44;11.50;;;9.53;;
24277;SDS011;12394;42.692;23.314;2023-06-14T14:41:10;14.80;;;11.50;;